createdAt,value
2019-03-20T00:00:13.384Z,100080.79
2019-03-20T00:05:20.231Z,100081.36
2019-03-20T00:10:25.758Z,100091.73
2019-03-20T00:15:30.966Z,100094.57
2019-03-20T00:20:37.173Z,100102.02
2019-03-20T00:25:42.502Z,100098.98
2019-03-20T00:30:48.879Z,100096.86
2019-03-20T00:35:54.144Z,100091.52
2019-03-20T00:41:00.424Z,100079.45
2019-03-20T00:46:05.668Z,100071.08
2019-03-20T00:51:10.863Z,100077.62
2019-03-20T00:56:17.273Z,100069.40
2019-03-20T01:01:22.503Z,100072.45
2019-03-20T01:06:27.855Z,100076.81
2019-03-20T01:11:33.247Z,100068.93
2019-03-20T01:16:39.502Z,100079.91
2019-03-20T01:21:44.696Z,100076.12
2019-03-20T01:26:49.910Z,100079.94
2019-03-20T01:31:55.107Z,100077.65
2019-03-20T01:37:00.738Z,100087.39
2019-03-20T01:42:06.035Z,100085.39
2019-03-20T01:47:11.245Z,100090.80
2019-03-20T01:52:16.515Z,100082.84
2019-03-20T01:57:22.327Z,100089.40
2019-03-20T02:02:27.527Z,100095.88
2019-03-20T02:07:32.735Z,100095.74
2019-03-20T02:12:38.079Z,100094.84
2019-03-20T02:17:43.279Z,100099.05
2019-03-20T02:22:48.493Z,100103.77
2019-03-20T02:27:53.696Z,100099.20
2019-03-20T02:32:58.924Z,100095.53
2019-03-20T02:38:04.628Z,100099.13
2019-03-20T02:43:09.837Z,100099.81
2019-03-20T02:48:15.133Z,100103.67
2019-03-20T02:53:20.447Z,100104.16
2019-03-20T02:58:25.646Z,100112.97
2019-03-20T03:03:30.931Z,100106.53
2019-03-20T03:08:36.217Z,100108.81
2019-03-20T03:13:41.409Z,100106.97
2019-03-20T03:18:46.607Z,100107.94
2019-03-20T03:23:51.915Z,100110.14
2019-03-20T03:28:57.186Z,100110.91
2019-03-20T03:34:02.481Z,100118.94
2019-03-20T03:39:08.460Z,100121.03
2019-03-20T03:44:13.924Z,100105.48
2019-03-20T03:49:19.166Z,100116.45
2019-03-20T03:54:24.402Z,100103.36
2019-03-20T03:59:29.722Z,100106.02
2019-03-20T04:04:34.934Z,100100.48
2019-03-20T04:09:40.139Z,100106.61
2019-03-20T04:14:45.331Z,100113.28
2019-03-20T04:19:50.760Z,100127.86
2019-03-20T04:24:56.022Z,100127.98
2019-03-20T04:30:01.221Z,100139.83
2019-03-20T04:35:06.718Z,100146.48
2019-03-20T04:40:12.254Z,100150.66
2019-03-20T04:45:17.443Z,100153.97
2019-03-20T04:50:22.949Z,100147.94
2019-03-20T04:55:28.506Z,100152.76
2019-03-20T05:00:33.703Z,100158.13
2019-03-20T05:05:39.069Z,100157.80
2019-03-20T05:10:44.260Z,100152.61
2019-03-20T05:15:49.525Z,100165.96
2019-03-20T05:20:55.189Z,100166.13
2019-03-20T05:26:00.556Z,100164.44
2019-03-20T05:31:05.756Z,100165.40
2019-03-20T05:36:11.106Z,100171.89
2019-03-20T05:41:16.507Z,100168.70
2019-03-20T05:46:22.109Z,100179.75
2019-03-20T05:51:27.359Z,100181.95
2019-03-20T05:56:32.648Z,100187.36
2019-03-20T06:01:37.877Z,100190.44
2019-03-20T06:06:43.219Z,100193.38
2019-03-20T06:11:48.534Z,100206.53
2019-03-20T06:16:53.750Z,100211.13
2019-03-20T06:21:59.090Z,100210.91
2019-03-20T06:27:04.407Z,100208.23
2019-03-20T06:32:09.614Z,100209.56
2019-03-20T06:37:14.974Z,100219.13
2019-03-20T06:42:20.241Z,100221.48
2019-03-20T06:47:25.719Z,100218.41
2019-03-20T06:52:31.013Z,100230.17
2019-03-20T06:57:36.251Z,100232.74
2019-03-20T07:02:44.438Z,100229.34
2019-03-20T07:07:49.505Z,100228.94
2019-03-20T07:12:54.916Z,100231.11
2019-03-20T07:18:00.249Z,100248.16
2019-03-20T07:23:05.734Z,100250.25
2019-03-20T07:28:11.035Z,100250.31
2019-03-20T07:33:17.142Z,100249.87
2019-03-20T07:38:22.602Z,100252.42
2019-03-20T07:43:27.958Z,100254.83
2019-03-20T07:48:33.507Z,100264.05
2019-03-20T07:53:38.879Z,100265.16
2019-03-20T07:58:44.361Z,100272.23
2019-03-20T08:03:49.554Z,100274.09
2019-03-20T08:08:54.758Z,100282.15
2019-03-20T08:14:00.158Z,100279.14
2019-03-20T08:19:05.503Z,100270.97
2019-03-20T08:24:10.722Z,100271.36
2019-03-20T08:29:16.087Z,100278.52
2019-03-20T08:34:21.330Z,100278.53
2019-03-20T08:39:26.739Z,100275.40
2019-03-20T08:44:32.011Z,100271.11
2019-03-20T08:49:37.396Z,100271.96
2019-03-20T08:54:42.636Z,100264.84
2019-03-20T08:59:47.937Z,100267.19
2019-03-20T09:04:54.293Z,100270.42
2019-03-20T09:09:59.666Z,100267.17
2019-03-20T09:15:05.087Z,100276.45
2019-03-20T09:20:15.365Z,100272.81
2019-03-20T09:25:20.608Z,100282.37
2019-03-20T09:30:25.864Z,100277.91
2019-03-20T09:35:31.224Z,100284.70
2019-03-20T09:40:36.816Z,100283.38
2019-03-20T09:45:42.094Z,100282.23
2019-03-20T09:50:47.307Z,100289.81
2019-03-20T09:55:52.521Z,100282.42
2019-03-20T10:00:57.879Z,100288.53
2019-03-20T10:06:03.164Z,100288.63
2019-03-20T10:11:08.390Z,100284.48
2019-03-20T10:16:13.590Z,100280.30
2019-03-20T10:21:19.143Z,100276.69
2019-03-20T10:26:24.422Z,100276.19
2019-03-20T10:31:29.716Z,100274.27
2019-03-20T10:36:34.912Z,100261.08
2019-03-20T10:41:40.130Z,100250.85
2019-03-20T10:46:46.393Z,100248.00
2019-03-20T10:51:51.744Z,100241.73
2019-03-20T10:56:57.194Z,100241.70
2019-03-20T11:02:02.739Z,100237.99
2019-03-20T11:07:08.122Z,100241.06
2019-03-20T11:12:13.328Z,100243.45
2019-03-20T11:17:18.541Z,100241.13
2019-03-20T11:22:24.720Z,100231.97
2019-03-20T11:27:29.929Z,100236.64
2019-03-20T11:32:35.279Z,100235.39
2019-03-20T11:37:40.499Z,100232.20
2019-03-20T11:42:46.018Z,100225.21
2019-03-20T11:47:51.274Z,100219.24
2019-03-20T11:52:56.534Z,100215.16
2019-03-20T11:58:01.745Z,100203.56
2019-03-20T12:03:07.080Z,100207.67
2019-03-20T12:08:12.291Z,100202.09
2019-03-20T12:13:17.551Z,100195.13
2019-03-20T12:18:22.908Z,100195.23
2019-03-20T12:23:28.218Z,100192.30
2019-03-20T12:28:33.417Z,100187.97
2019-03-20T12:33:38.675Z,100185.20
2019-03-20T12:38:43.995Z,100194.10
2019-03-20T12:43:49.484Z,100189.48
2019-03-20T12:48:54.733Z,100177.58
2019-03-20T12:54:00.017Z,100173.33
2019-03-20T12:59:05.206Z,100173.33
2019-03-20T13:04:10.818Z,100172.94
2019-03-20T13:09:16.608Z,100171.30
2019-03-20T13:14:22.042Z,100172.14
2019-03-20T13:19:27.274Z,100166.72
2019-03-20T13:24:32.854Z,100166.72
2019-03-20T13:29:38.141Z,100161.92
2019-03-20T13:34:43.823Z,100160.35
2019-03-20T13:39:50.439Z,100148.28
2019-03-20T13:44:55.735Z,100150.80
2019-03-20T13:50:00.986Z,100160.44
2019-03-20T13:55:06.711Z,100165.70
2019-03-20T14:00:15.153Z,100165.94
2019-03-20T14:05:20.987Z,100160.34
2019-03-20T14:10:26.508Z,100156.81
2019-03-20T14:15:31.806Z,100163.00
2019-03-20T14:20:37.132Z,100168.23
2019-03-20T14:25:42.679Z,100165.53
2019-03-20T14:30:48.048Z,100182.96
2019-03-20T14:35:53.286Z,100180.50
2019-03-20T14:40:58.573Z,100166.66
2019-03-20T14:46:03.805Z,100171.45
2019-03-20T14:51:09.121Z,100167.05
2019-03-20T14:56:14.622Z,100170.16
2019-03-20T15:01:20.812Z,100172.42
2019-03-20T15:06:26.054Z,100165.83
2019-03-20T15:11:31.277Z,100173.28
2019-03-20T15:16:36.672Z,100174.34
2019-03-20T15:21:41.999Z,100175.84
2019-03-20T15:26:47.279Z,100172.63
2019-03-20T15:31:52.510Z,100168.65
2019-03-20T15:36:57.799Z,100170.18
2019-03-20T15:42:03.032Z,100164.12
2019-03-20T15:47:09.261Z,100162.67
2019-03-20T15:52:14.492Z,100160.96
2019-03-20T15:57:20.049Z,100159.52
2019-03-20T16:02:25.315Z,100160.22
2019-03-20T16:07:30.648Z,100158.84
2019-03-20T16:12:35.890Z,100158.61
2019-03-20T16:17:41.248Z,100159.41
2019-03-20T16:22:46.614Z,100157.61
2019-03-20T16:27:51.958Z,100153.03
2019-03-20T16:32:57.251Z,100149.80
2019-03-20T16:38:02.515Z,100145.08
2019-03-20T16:43:08.481Z,100148.95
2019-03-20T16:48:13.927Z,100142.78
2019-03-20T16:53:19.187Z,100139.08
2019-03-20T16:58:24.468Z,100144.74
2019-03-20T17:03:30.723Z,100141.31
2019-03-20T17:08:35.939Z,100141.95
2019-03-20T17:13:41.455Z,100150.64
2019-03-20T17:18:47.715Z,100145.53
2019-03-20T17:23:52.924Z,100157.33
2019-03-20T17:28:58.126Z,100152.24
2019-03-20T17:34:03.333Z,100167.77
2019-03-20T17:39:10.007Z,100173.44
2019-03-20T17:44:15.306Z,100170.34
2019-03-20T17:49:20.833Z,100176.59
2019-03-20T17:54:26.207Z,100179.80
2019-03-20T17:59:31.498Z,100186.81
2019-03-20T18:04:36.757Z,100190.77
2019-03-20T18:09:41.940Z,100196.81
2019-03-20T18:14:47.246Z,100207.52
2019-03-20T18:19:52.450Z,100210.28
2019-03-20T18:24:57.747Z,100215.69
2019-03-20T18:30:02.969Z,100224.66
2019-03-20T18:35:08.503Z,100229.75
2019-03-20T18:40:15.148Z,100231.67
2019-03-20T18:45:20.825Z,100233.44
2019-03-20T18:50:26.142Z,100227.19
2019-03-20T18:55:32.437Z,100230.57
2019-03-20T19:00:37.741Z,100231.52
2019-03-20T19:05:49.588Z,100239.83
2019-03-20T19:10:54.972Z,100244.35
2019-03-20T19:16:01.906Z,100243.10
2019-03-20T19:21:07.635Z,100242.91
2019-03-20T19:26:12.897Z,100247.16
2019-03-20T19:31:18.098Z,100258.98
2019-03-20T19:36:23.396Z,100266.94
2019-03-20T19:41:28.866Z,100268.37
2019-03-20T19:46:34.210Z,100269.56
2019-03-20T19:51:39.570Z,100269.55
2019-03-20T19:56:46.278Z,100277.86
2019-03-20T20:01:51.505Z,100276.55
2019-03-20T20:06:56.741Z,100278.33
2019-03-20T20:12:02.029Z,100283.72
2019-03-20T20:17:07.835Z,100280.54
2019-03-20T20:22:14.256Z,100290.14
2019-03-20T20:27:20.605Z,100287.80
2019-03-20T20:32:26.074Z,100300.44
2019-03-20T20:37:31.643Z,100296.99
2019-03-20T20:42:43.047Z,100304.13
2019-03-20T20:47:44.145Z,100311.16
2019-03-20T20:52:49.492Z,100314.91
2019-03-20T20:57:54.813Z,100312.73
2019-03-20T21:03:00.150Z,100312.55
2019-03-20T21:08:05.360Z,100308.23
2019-03-20T21:13:11.241Z,100314.22
2019-03-20T21:18:57.408Z,100316.46
2019-03-20T21:24:30.303Z,100323.64
2019-03-20T21:30:07.819Z,100323.95
2019-03-20T21:36:06.008Z,100329.03
2019-03-20T21:42:07.336Z,100326.95
2019-03-20T21:47:34.088Z,100325.98
2019-03-20T21:52:40.067Z,100333.98
2019-03-20T21:58:01.574Z,100339.39
2019-03-20T22:03:07.569Z,100335.39
2019-03-20T22:08:13.892Z,100325.55
2019-03-20T22:13:29.543Z,100322.09
2019-03-20T22:19:24.424Z,100317.98
2019-03-20T22:25:03.207Z,100324.41
2019-03-20T22:30:09.700Z,100322.24
2019-03-20T22:35:44.455Z,100323.62
2019-03-20T22:41:31.126Z,100322.22
2019-03-20T22:47:31.775Z,100326.29
2019-03-20T22:53:09.036Z,100331.55
2019-03-20T22:58:47.052Z,100329.92
2019-03-20T23:03:57.881Z,100324.14
2019-03-20T23:09:05.552Z,100326.20
2019-03-20T23:14:13.643Z,100328.84
2019-03-20T23:19:19.793Z,100319.43
2019-03-20T23:24:25.919Z,100315.27
2019-03-20T23:29:33.074Z,100310.48
2019-03-20T23:34:39.730Z,100303.37
2019-03-20T23:39:46.035Z,100304.59
2019-03-20T23:44:52.516Z,100304.02
2019-03-20T23:49:58.620Z,100307.97
2019-03-20T23:55:05.948Z,100307.94
